Time;durP1;ratioP1;P1;durP2;ratioP2;P2;SDS_P1;SDS_P2;PMS_P1;PMS_P2;Temp;Humidity;BMP_temperature;BMP_pressure;BME280_temperature;BME280_humidity;BME280_pressure;Samples;Min_cycle;Max_cycle;Signal;HPM_P1;HPM_P2
2021/04/12 00:01:34;;;;;;;16.90;6.30;;;8.00;53.30;;;;;;5028561;28;20091;-51
2021/04/12 00:04:06;;;;;;;11.00;5.75;;;8.00;53.40;;;;;;5028575;28;20101;-53
2021/04/12 00:06:41;;;;;;;18.85;6.60;;;8.00;53.80;;;;;;5028668;28;20042;-52
2021/04/12 00:09:17;;;;;;;14.02;5.53;;;8.00;53.90;;;;;;5028778;28;20045;-45
2021/04/12 00:11:54;;;;;;;10.63;6.03;;;7.90;53.90;;;;;;5028971;28;20462;-54
2021/04/12 00:14:26;;;;;;;13.15;6.30;;;7.90;54.10;;;;;;5028661;28;20438;-50
2021/04/12 00:17:03;;;;;;;13.40;6.18;;;7.70;54.30;;;;;;5028444;28;20103;-52
2021/04/12 00:19:53;;;;;;;12.52;6.25;;;7.70;54.60;;;;;;5028381;28;20072;-54
2021/04/12 00:22:32;;;;;;;13.73;6.25;;;7.60;55.00;;;;;;5062402;28;20464;-48
2021/04/12 00:25:26;;;;;;;12.35;6.18;;;7.70;54.90;;;;;;5090933;28;20066;-51
2021/04/12 00:27:58;;;;;;;12.32;6.35;;;7.70;54.90;;;;;;5080844;28;20040;-52
2021/04/12 00:30:32;;;;;;;10.88;6.38;;;7.70;55.10;;;;;;5091240;28;20051;-53
2021/04/12 00:33:09;;;;;;;14.05;6.25;;;7.50;55.40;;;;;;5090738;28;20092;-51
2021/04/12 00:35:43;;;;;;;16.88;6.78;;;7.40;55.50;;;;;;5090876;28;20401;-50
2021/04/12 00:38:18;;;;;;;13.68;6.40;;;7.40;55.60;;;;;;5091002;28;20059;-49
2021/04/12 00:41:08;;;;;;;16.15;6.05;;;7.50;55.40;;;;;;5090627;28;20043;-51
2021/04/12 00:44:12;;;;;;;18.00;6.32;;;7.50;55.40;;;;;;5090668;28;20098;-48
2021/04/12 00:46:44;;;;;;;19.73;6.88;;;7.30;55.90;;;;;;5080485;28;20502;-52
2021/04/12 00:49:35;;;;;;;16.38;6.38;;;7.40;55.70;;;;;;5090387;28;20099;-49
2021/04/12 00:52:39;;;;;;;10.02;6.00;;;7.40;55.80;;;;;;5073075;28;20064;-47
2021/04/12 00:55:32;;;;;;;13.98;6.53;;;7.20;55.90;;;;;;5059714;28;20418;-52
2021/04/12 00:58:11;;;;;;;12.02;6.38;;;7.40;55.90;;;;;;5076316;28;20047;-47
2021/04/12 01:00:46;;;;;;;9.68;5.78;;;7.40;55.80;;;;;;5076046;28;20455;-52
2021/04/12 01:03:37;;;;;;;12.82;5.80;;;7.50;55.70;;;;;;5076089;28;20081;-49
2021/04/12 01:06:10;;;;;;;12.40;6.13;;;7.40;55.80;;;;;;5075950;28;20101;-51
2021/04/12 01:08:37;;;;;;;11.38;6.13;;;;;;;;;;5093962;28;20413;-52
2021/04/12 01:11:04;;;;;;;;;;;7.30;56.10;;;;;;5094617;28;20051;-52
2021/04/12 01:13:31;;;;;;;16.13;5.85;;;;;;;;;;5094330;28;19965;-52
2021/04/12 01:16:16;;;;;;;;;;;7.30;56.00;;;;;;5093891;28;20067;-51
2021/04/12 01:19:36;;;;;;;10.52;5.68;;;7.40;55.90;;;;;;5092011;28;19924;-51
2021/04/12 01:22:50;;;;;;;12.07;6.05;;;7.40;55.60;;;;;;5031200;28;20491;-53
2021/04/12 01:25:53;;;;;;;16.60;6.15;;;7.40;55.80;;;;;;4972330;28;20122;-49
2021/04/12 01:28:47;;;;;;;15.60;6.22;;;7.40;55.80;;;;;;4972789;28;20536;-51
2021/04/12 01:31:35;;;;;;;15.88;6.50;;;7.50;55.70;;;;;;4972317;28;20046;-54
2021/04/12 01:34:39;;;;;;;16.27;6.65;;;7.40;55.80;;;;;;4953140;29;20047;-49
2021/04/12 01:37:23;;;;;;;13.48;6.10;;;7.40;55.90;;;;;;4952950;29;20122;-51
2021/04/12 01:40:02;;;;;;;16.25;6.20;;;7.40;55.80;;;;;;4953081;29;20070;-50
2021/04/12 01:42:43;;;;;;;15.95;7.07;;;7.40;55.70;;;;;;4952961;29;20079;-48
2021/04/12 01:45:40;;;;;;;14.20;5.97;;;7.30;55.90;;;;;;4952515;28;20130;-51
2021/04/12 01:48:31;;;;;;;13.45;6.10;;;7.30;56.00;;;;;;4953120;29;20055;-52
2021/04/12 01:51:16;;;;;;;10.15;5.93;;;7.30;56.00;;;;;;4945895;29;20502;-50
2021/04/12 01:53:49;;;;;;;17.40;6.00;;;7.30;56.20;;;;;;4977629;28;20579;-49
2021/04/12 01:56:34;;;;;;;18.65;6.05;;;7.30;56.00;;;;;;4991261;28;20058;-52
2021/04/12 01:59:25;;;;;;;11.90;6.65;;;7.20;56.20;;;;;;4991283;28;20140;-50
2021/04/12 02:02:05;;;;;;;12.35;6.28;;;7.20;56.50;;;;;;5058948;28;20079;-49
2021/04/12 02:04:40;;;;;;;12.82;6.20;;;7.20;56.30;;;;;;5092050;28;20105;-50
2021/04/12 02:07:34;;;;;;;15.75;6.70;;;7.20;56.00;;;;;;5093067;28;20078;-52
2021/04/12 02:10:26;;;;;;;9.98;6.57;;;7.20;56.20;;;;;;5079471;28;20637;-52
2021/04/12 02:13:01;;;;;;;13.52;6.78;;;7.20;56.40;;;;;;5092807;28;20385;-49
2021/04/12 02:15:51;;;;;;;14.93;7.95;;;7.10;56.40;;;;;;5092858;28;20535;-50
2021/04/12 02:18:21;;;;;;;13.80;6.47;;;7.20;56.40;;;;;;5092382;28;20047;-53
2021/04/12 02:21:50;;;;;;;14.15;6.38;;;7.20;56.30;;;;;;5092775;28;20044;-46
2021/04/12 02:24:29;;;;;;;12.50;6.35;;;7.10;56.50;;;;;;5019097;28;20084;-51
2021/04/12 02:27:17;;;;;;;21.17;6.65;;;7.20;56.40;;;;;;5030389;28;20535;-51
2021/04/12 02:30:03;;;;;;;14.88;7.22;;;7.10;56.30;;;;;;5029687;28;20096;-54
2021/04/12 02:32:41;;;;;;;17.38;7.43;;;7.00;56.70;;;;;;5013692;28;20112;-50
2021/04/12 02:35:32;;;;;;;15.18;7.35;;;7.10;56.90;;;;;;5030269;28;20049;-52
2021/04/12 02:38:15;;;;;;;23.60;7.82;;;7.10;56.90;;;;;;5030228;28;20475;-50
2021/04/12 02:40:42;;;;;;;14.75;7.70;;;;;;;;;;5029670;28;20144;-51
2021/04/12 02:43:23;;;;;;;;;;;7.00;56.90;;;;;;5030086;28;20097;-49
2021/04/12 02:46:21;;;;;;;11.38;6.88;;;6.90;57.30;;;;;;5029837;28;19921;-51
2021/04/12 02:49:09;;;;;;;13.48;7.07;;;6.90;57.20;;;;;;5029763;28;20042;-49
2021/04/12 02:52:13;;;;;;;11.45;6.70;;;7.00;57.10;;;;;;5029936;28;20045;-49
2021/04/12 02:54:59;;;;;;;11.70;7.07;;;6.80;57.50;;;;;;5047074;28;20499;-51
2021/04/12 02:57:34;;;;;;;20.95;7.40;;;6.90;57.40;;;;;;5091846;28;20106;-49
2021/04/12 03:00:01;;;;;;;16.63;8.00;;;;;;;;;;5078357;28;20044;-53
2021/04/12 03:02:48;;;;;;;;;;;6.80;57.40;;;;;;5092778;28;20040;-49
2021/04/12 03:05:59;;;;;;;12.25;7.32;;;7.00;57.20;;;;;;5080335;28;19928;-52
2021/04/12 03:08:31;;;;;;;13.75;7.55;;;7.00;57.40;;;;;;5091892;28;20040;-53
2021/04/12 03:11:20;;;;;;;12.77;7.30;;;7.00;57.40;;;;;;5092324;28;20050;-52
2021/04/12 03:13:47;;;;;;;12.40;6.55;;;;;;;;;;5079527;28;20055;-51
2021/04/12 03:16:20;;;;;;;;;;;6.90;57.70;;;;;;5092648;28;20044;-51
2021/04/12 03:19:24;;;;;;;13.70;7.22;;;7.10;57.20;;;;;;5092078;28;19920;-51
2021/04/12 03:22:54;;;;;;;17.70;7.35;;;7.10;56.90;;;;;;5092040;28;20040;-52
2021/04/12 03:25:59;;;;;;;10.73;6.25;;;7.20;56.70;;;;;;5025299;28;20054;-50
2021/04/12 03:28:58;;;;;;;11.13;6.68;;;7.20;56.40;;;;;;4970724;28;20055;-49
2021/04/12 03:31:42;;;;;;;11.00;7.03;;;7.10;56.60;;;;;;4932391;29;20135;-51
2021/04/12 03:34:10;;;;;;;12.55;7.13;;;;;;;;;;4919383;29;20090;-52
2021/04/12 03:36:57;;;;;;;15.05;6.72;;;7.10;56.70;;;;;;4932144;29;20056;-48
2021/04/12 03:39:38;;;;;;;14.98;6.80;;;7.10;56.60;;;;;;4920539;29;20086;-50
2021/04/12 03:42:24;;;;;;;17.73;7.13;;;6.80;57.00;;;;;;4931902;29;20052;-53
2021/04/12 03:44:51;;;;;;;9.80;6.63;;;;;;;;;;4932254;28;20479;-48
2021/04/12 03:47:52;;;;;;;11.63;7.13;;;6.90;57.70;;;;;;4932216;29;20315;-49
2021/04/12 03:50:18;;;;;;;16.88;7.30;;;;;;;;;;4932464;29;20106;-50
2021/04/12 03:53:03;;;;;;;;;;;6.60;58.00;;;;;;4932588;29;20054;-54
2021/04/12 03:56:04;;;;;;;10.70;6.97;;;6.70;57.60;;;;;;4931562;29;19950;-51
2021/04/12 03:58:48;;;;;;;17.10;7.20;;;6.70;58.20;;;;;;4921385;29;20059;-50
2021/04/12 04:01:23;;;;;;;12.40;7.65;;;6.70;58.20;;;;;;4919981;29;20174;-53
2021/04/12 04:04:00;;;;;;;14.68;7.72;;;6.60;58.30;;;;;;4932020;29;20047;-48
2021/04/12 04:06:27;;;;;;;15.13;7.53;;;;;;;;;;5005914;28;20050;-52
2021/04/12 04:09:13;;;;;;;;;;;6.50;58.30;;;;;;5062026;28;20052;-50
2021/04/12 04:12:04;;;;;;;15.90;7.60;;;6.50;58.40;;;;;;5077938;28;19974;-51
2021/04/12 04:14:37;;;;;;;13.52;7.30;;;6.50;58.40;;;;;;5091221;28;20506;-51
2021/04/12 04:17:44;;;;;;;13.00;7.35;;;6.50;58.60;;;;;;5091669;28;20052;-50
2021/04/12 04:20:20;;;;;;;13.07;7.50;;;6.50;58.70;;;;;;5078778;28;20055;-50
2021/04/12 04:23:10;;;;;;;;;;;6.50;59.20;;;;;;5091887;28;20048;-53
2021/04/12 04:25:52;;;;;;;13.07;7.25;;;6.80;58.10;;;;;;5091262;28;19951;-52
2021/04/12 04:28:19;;;;;;;18.17;7.95;;;;;;;;;;5095057;28;20040;-49
2021/04/12 04:31:25;;;;;;;13.02;7.75;;;6.60;58.40;;;;;;5096066;28;20493;-52
2021/04/12 04:34:27;;;;;;;14.27;7.75;;;6.90;58.80;;;;;;5077258;28;20114;-52
2021/04/12 04:37:00;;;;;;;16.48;8.57;;;6.80;58.50;;;;;;5095619;28;20051;-49
2021/04/12 04:39:35;;;;;;;18.45;8.18;;;6.90;58.40;;;;;;5095478;28;20040;-48
2021/04/12 04:42:10;;;;;;;15.63;8.40;;;6.90;58.30;;;;;;5095632;28;20544;-52
2021/04/12 04:45:22;;;;;;;17.42;7.82;;;6.90;58.30;;;;;;5095616;28;20804;-50
2021/04/12 04:48:13;;;;;;;24.00;9.38;;;7.00;58.40;;;;;;5095430;28;20044;-49
2021/04/12 04:51:29;;;;;;;18.92;8.05;;;7.00;58.10;;;;;;5095048;28;20047;-47
2021/04/12 04:54:06;;;;;;;17.50;7.97;;;;;;;;;;5088273;28;20044;-52
2021/04/12 04:56:36;;;;;;;;;;;7.10;57.80;;;;;;5094967;28;20047;-50
2021/04/12 04:59:26;;;;;;;17.98;8.35;;;7.20;57.60;;;;;;5094361;28;19995;-45
2021/04/12 05:01:53;;;;;;;11.27;7.85;;;;;;;;;;5095069;28;20044;-51
2021/04/12 05:04:48;;;;;;;16.90;8.00;;;7.30;57.50;;;;;;5094553;28;20070;-50
2021/04/12 05:07:33;;;;;;;13.10;7.82;;;7.20;57.60;;;;;;5094449;28;20048;-53
2021/04/12 05:10:31;;;;;;;14.80;7.90;;;7.20;57.30;;;;;;5076390;28;20063;-53
2021/04/12 05:13:39;;;;;;;15.15;8.05;;;7.20;57.30;;;;;;5094120;28;20478;-51
2021/04/12 05:16:38;;;;;;;14.48;7.55;;;7.20;57.60;;;;;;5094345;28;20460;-51
2021/04/12 05:19:19;;;;;;;13.40;7.97;;;7.20;57.70;;;;;;5094431;28;20044;-53
2021/04/12 05:22:00;;;;;;;17.45;8.07;;;7.20;57.70;;;;;;5080946;28;20747;-54
2021/04/12 05:24:48;;;;;;;14.90;7.22;;;7.20;57.80;;;;;;5094097;28;20048;-54
2021/04/12 05:27:37;;;;;;;11.35;7.47;;;7.30;58.00;;;;;;5094660;28;20048;-55
2021/04/12 05:30:22;;;;;;;14.32;7.60;;;7.20;58.00;;;;;;5094131;28;20036;-48
2021/04/12 05:33:02;;;;;;;13.90;7.90;;;7.30;57.90;;;;;;5094036;28;20478;-51
2021/04/12 05:35:29;;;;;;;13.15;7.53;;;;;;;;;;5093821;28;20036;-52
2021/04/12 05:38:20;;;;;;;13.93;7.57;;;7.30;57.50;;;;;;5093182;28;20060;-54
2021/04/12 05:41:05;;;;;;;22.52;7.68;;;7.30;57.90;;;;;;5093728;28;20044;-51
2021/04/12 05:44:12;;;;;;;17.92;7.65;;;7.30;58.10;;;;;;5075920;28;20105;-51
2021/04/12 05:47:03;;;;;;;11.88;6.60;;;7.10;58.50;;;;;;5000251;28;20061;-53
2021/04/12 05:50:11;;;;;;;12.00;6.68;;;7.00;58.60;;;;;;5006815;28;20050;-50
2021/04/12 05:53:06;;;;;;;14.70;7.60;;;7.20;58.70;;;;;;5005645;28;20062;-50
2021/04/12 05:55:40;;;;;;;16.67;8.23;;;7.30;58.40;;;;;;5007840;28;20069;-53
2021/04/12 05:59:00;;;;;;;19.55;8.05;;;7.30;58.30;;;;;;4299565;28;10000672;-52
2021/04/12 06:02:11;;;;;;;11.23;7.00;;;7.30;58.00;;;;;;4966915;28;20039;-54
2021/04/12 06:05:10;;;;;;;15.27;7.45;;;7.30;58.20;;;;;;4909790;29;20072;-52
2021/04/12 06:07:45;;;;;;;13.38;7.30;;;7.30;58.20;;;;;;4909290;29;20060;-54
2021/04/12 06:10:46;;;;;;;13.25;7.15;;;7.40;58.40;;;;;;4911497;29;20183;-52
2021/04/12 06:13:56;;;;;;;11.52;7.32;;;7.40;58.60;;;;;;4907574;29;20526;-53
2021/04/12 06:16:47;;;;;;;11.18;7.32;;;7.40;58.40;;;;;;4910038;29;20067;-54
2021/04/12 06:19:20;;;;;;;11.65;6.82;;;7.50;58.80;;;;;;4956481;28;20054;-57
2021/04/12 06:22:09;;;;;;;11.38;7.05;;;7.50;58.90;;;;;;4957738;28;20642;-49
2021/04/12 06:24:36;;;;;;;10.77;6.32;;;;;;;;;;4957223;28;20055;-47
2021/04/12 06:27:10;;;;;;;;;;;7.70;58.40;;;;;;4964237;28;20102;-49
2021/04/12 06:29:55;;;;;;;11.00;6.18;;;7.90;57.90;;;;;;4971002;28;19925;-49
2021/04/12 06:32:42;;;;;;;12.90;6.13;;;7.50;58.20;;;;;;4970865;28;20050;-52
2021/04/12 06:35:36;;;;;;;9.15;6.30;;;7.80;57.70;;;;;;4979928;28;20190;-51
2021/04/12 06:38:43;;;;;;;12.23;6.18;;;8.10;58.00;;;;;;4990198;28;20062;-50
2021/04/12 06:41:47;;;;;;;12.63;7.00;;;8.00;57.80;;;;;;5020325;28;20518;-49
2021/04/12 06:44:32;;;;;;;8.52;5.70;;;8.10;57.60;;;;;;5092154;28;20043;-48
2021/04/12 06:47:44;;;;;;;8.07;5.47;;;8.30;57.30;;;;;;5091615;28;20101;-48
2021/04/12 06:50:40;;;;;;;11.13;5.50;;;8.50;57.20;;;;;;5078804;28;20127;-50
2021/04/12 06:53:25;;;;;;;10.23;5.75;;;8.80;56.70;;;;;;5089066;28;20047;-49
2021/04/12 06:55:55;;;;;;;12.48;6.03;;;8.90;55.60;;;;;;5091231;28;20566;-48
2021/04/12 06:58:57;;;;;;;8.82;4.88;;;8.80;55.80;;;;;;5091939;28;20086;-53
2021/04/12 07:01:51;;;;;;;9.45;5.07;;;9.10;55.40;;;;;;5091913;28;20098;-48
2021/04/12 07:04:55;;;;;;;9.15;5.00;;;9.20;55.20;;;;;;5091105;28;20401;-48
2021/04/12 07:07:43;;;;;;;8.25;5.05;;;9.20;55.10;;;;;;5091770;28;20052;-48
2021/04/12 07:11:00;;;;;;;15.07;4.82;;;9.20;55.00;;;;;;5091364;28;20063;-48
2021/04/12 07:13:27;;;;;;;7.55;4.53;;;;;;;;;;5091342;28;20048;-48
2021/04/12 07:16:16;;;;;;;7.47;4.57;;;9.80;54.00;;;;;;5078711;28;20048;-51
2021/04/12 07:19:11;;;;;;;6.68;3.97;;;9.80;52.20;;;;;;5090860;28;20084;-50
2021/04/12 07:21:52;;;;;;;7.85;4.20;;;9.90;53.30;;;;;;5091064;28;20052;-49
2021/04/12 07:24:49;;;;;;;10.73;4.28;;;10.10;53.10;;;;;;5091712;28;20036;-47
2021/04/12 07:27:16;;;;;;;9.98;5.00;;;;;;;;;;5080294;28;20101;-47
2021/04/12 07:30:12;;;;;;;7.05;4.07;;;10.10;51.40;;;;;;5091254;28;20047;-47
2021/04/12 07:33:11;;;;;;;9.23;3.80;;;10.20;51.10;;;;;;5090753;28;20051;-53
2021/04/12 07:35:46;;;;;;;5.82;3.72;;;10.40;50.90;;;;;;5090955;28;20152;-51
2021/04/12 07:38:37;;;;;;;7.45;3.83;;;10.00;50.50;;;;;;5091072;28;20052;-49
2021/04/12 07:41:40;;;;;;;5.95;3.78;;;9.50;52.20;;;;;;5077970;28;20052;-51
2021/04/12 07:44:07;;;;;;;10.55;4.07;;;;;;;;;;5091421;28;20048;-48
2021/04/12 07:47:09;;;;;;;;;;;9.20;53.00;;;;;;5083857;28;20048;-47
2021/04/12 07:49:57;;;;;;;5.20;3.60;;;8.60;54.60;;;;;;4989103;28;19925;-48
2021/04/12 07:53:00;;;;;;;8.32;3.80;;;8.50;55.80;;;;;;4989238;28;20057;-49
2021/04/12 07:55:55;;;;;;;9.60;4.70;;;8.30;55.10;;;;;;4988850;28;20055;-49
2021/04/12 07:58:52;;;;;;;8.82;4.38;;;8.40;55.60;;;;;;4989012;28;20098;-46
2021/04/12 08:01:49;;;;;;;6.80;3.80;;;8.10;56.00;;;;;;4988903;28;20050;-52
2021/04/12 08:04:47;;;;;;;9.57;3.60;;;7.60;57.70;;;;;;4993154;28;20468;-49
2021/04/12 08:07:55;;;;;;;6.53;3.92;;;7.80;58.20;;;;;;4993641;28;20082;-51
2021/04/12 08:10:52;;;;;;;8.27;4.00;;;7.70;57.40;;;;;;4993186;28;20077;-50
2021/04/12 08:13:49;;;;;;;7.88;3.42;;;7.50;58.30;;;;;;4993117;28;20054;-47
2021/04/12 08:16:32;;;;;;;6.25;3.78;;;7.60;58.40;;;;;;4992168;28;20081;-53
2021/04/12 08:19:59;;;;;;;11.88;3.63;;;7.30;58.10;;;;;;4991952;28;20173;-46
2021/04/12 08:23:00;;;;;;;5.30;3.92;;;8.20;57.00;;;;;;5003430;28;20093;-47
2021/04/12 08:25:36;;;;;;;8.98;3.67;;;8.40;54.60;;;;;;5091230;28;20049;-47
2021/04/12 08:28:34;;;;;;;6.93;3.60;;;8.00;55.40;;;;;;5109092;28;20052;-58
2021/04/12 08:31:44;;;;;;;4.32;3.42;;;9.00;53.70;;;;;;5106030;28;20047;-60
2021/04/12 08:34:45;;;;;;;10.15;3.53;;;9.70;52.00;;;;;;5082848;28;20398;-57
2021/04/12 08:37:36;;;;;;;6.70;3.67;;;10.50;51.30;;;;;;5094350;28;20036;-58
2021/04/12 08:40:33;;;;;;;6.07;3.60;;;10.80;48.70;;;;;;5094621;28;20042;-61
2021/04/12 08:43:41;;;;;;;7.80;3.92;;;10.70;49.80;;;;;;5083595;28;20494;-56
2021/04/12 08:46:45;;;;;;;5.90;3.78;;;10.20;51.00;;;;;;5086654;28;20464;-58
2021/04/12 08:49:20;;;;;;;5.32;3.80;;;10.40;51.40;;;;;;5094835;28;20036;-65
2021/04/12 08:52:20;;;;;;;8.80;3.72;;;10.50;50.70;;;;;;5094067;28;20060;-58
2021/04/12 08:55:23;;;;;;;12.65;3.97;;;10.70;49.90;;;;;;5044013;28;20047;-58
2021/04/12 08:58:06;;;;;;;8.20;3.93;;;10.00;50.40;;;;;;5093670;28;20040;-58
2021/04/12 09:00:47;;;;;;;7.20;3.53;;;9.20;52.70;;;;;;5093637;28;20345;-60
2021/04/12 09:03:55;;;;;;;3.40;3.10;;;8.40;55.80;;;;;;5094285;28;20040;-57
2021/04/12 09:07:03;;;;;;;8.95;3.53;;;8.00;58.00;;;;;;5031201;28;20073;-61
2021/04/12 09:10:09;;;;;;;4.47;3.22;;;7.80;58.90;;;;;;5014980;28;20046;-59
2021/04/12 09:13:05;;;;;;;4.90;3.40;;;7.40;60.00;;;;;;5030518;28;20050;-57
2021/04/12 09:15:32;;;;;;;3.53;3.25;;;;;;;;;;5031131;28;20495;-57
2021/04/12 09:18:10;;;;;;;;;;;6.90;62.20;;;;;;5031950;28;20053;-57
2021/04/12 09:20:37;;;;;;;6.07;3.63;;;;;;;;;;5031612;28;20291;-65
2021/04/12 09:23:04;;;;;;;;;;;7.10;61.60;;;;;;5031777;28;20099;-57
2021/04/12 09:26:16;;;;;;;5.45;3.33;;;7.50;59.50;;;;;;5031369;28;19921;-59
2021/04/12 09:29:02;;;;;;;7.03;3.85;;;7.70;59.50;;;;;;5024730;28;20046;-57
2021/04/12 09:31:58;;;;;;;11.00;5.32;;;8.10;59.20;;;;;;5023582;28;20057;-59
2021/04/12 09:34:43;;;;;;;5.47;3.53;;;8.90;59.00;;;;;;5024241;28;20077;-59
2021/04/12 09:37:31;;;;;;;4.10;3.60;;;9.10;57.10;;;;;;5011403;28;20144;-61
2021/04/12 09:40:18;;;;;;;6.88;3.60;;;9.40;56.40;;;;;;5019059;28;20042;-59
2021/04/12 09:43:31;;;;;;;3.90;3.42;;;9.60;56.30;;;;;;5068248;28;20116;-58
2021/04/12 09:46:50;;;;;;;6.18;3.80;;;10.00;54.30;;;;;;5088115;28;20048;-60
2021/04/12 09:49:51;;;;;;;4.07;3.50;;;10.50;53.10;;;;;;5105405;28;20495;-61
2021/04/12 09:52:46;;;;;;;3.70;3.40;;;10.60;49.80;;;;;;5094869;28;20165;-60
2021/04/12 09:55:50;;;;;;;5.78;3.53;;;10.70;50.50;;;;;;5083575;28;20036;-58
2021/04/12 09:58:55;;;;;;;8.80;3.35;;;10.70;50.00;;;;;;5081776;28;20102;-58
2021/04/12 10:01:46;;;;;;;6.35;3.55;;;11.10;48.40;;;;;;5079369;28;20040;-59
2021/04/12 10:04:27;;;;;;;6.82;3.25;;;10.90;49.00;;;;;;5106883;28;20052;-60
2021/04/12 10:07:19;;;;;;;3.90;3.30;;;11.10;48.80;;;;;;5104138;28;20051;-59
2021/04/12 10:10:15;;;;;;;3.78;2.90;;;11.20;47.90;;;;;;5097868;28;20036;-59
2021/04/12 10:13:15;;;;;;;5.35;3.03;;;11.10;45.60;;;;;;5029394;28;20061;-60
2021/04/12 10:15:42;;;;;;;5.22;3.20;;;;;;;;;;4970852;28;20058;-60
2021/04/12 10:18:09;;;;;;;6.32;3.10;;;;;;;;;;4971297;28;20055;-59
2021/04/12 10:20:49;;;;;;;4.57;3.00;;;11.20;44.90;;;;;;4971170;28;20209;-58
2021/04/12 10:23:26;;;;;;;4.53;3.42;;;11.20;45.10;;;;;;4971434;28;20058;-59
2021/04/12 10:26:04;;;;;;;5.68;3.25;;;10.30;45.30;;;;;;4954333;28;20113;-60
2021/04/12 10:28:39;;;;;;;4.45;3.03;;;10.20;46.50;;;;;;4968232;28;20461;-58
2021/04/12 10:31:33;;;;;;;5.76;3.21;;;10.50;48.10;;;;;;4491871;28;10004081;-60
2021/04/12 10:34:13;;;;;;;8.30;3.75;;;10.90;49.00;;;;;;4969200;28;20054;-58
2021/04/12 10:37:08;;;;;;;6.03;4.28;;;11.00;49.90;;;;;;4968756;28;20054;-59
2021/04/12 10:40:01;;;;;;;8.05;4.25;;;10.90;52.10;;;;;;4958222;28;20078;-59
2021/04/12 10:42:36;;;;;;;5.75;4.28;;;11.00;52.30;;;;;;4968155;28;20055;-60
2021/04/12 10:45:37;;;;;;;4.55;3.33;;;11.40;50.00;;;;;;4967965;28;20043;-58
2021/04/12 10:48:30;;;;;;;5.10;3.17;;;10.70;47.80;;;;;;4954415;28;20066;-57
2021/04/12 10:51:28;;;;;;;4.03;3.22;;;10.80;48.40;;;;;;4987445;28;20061;-58
2021/04/12 10:54:19;;;;;;;8.45;4.05;;;10.70;50.40;;;;;;5076533;28;20056;-59
2021/04/12 10:57:12;;;;;;;5.72;3.90;;;10.80;48.90;;;;;;5088930;28;20402;-59
2021/04/12 10:59:40;;;;;;;6.20;4.00;;;;;;;;;;5089740;28;20040;-57
2021/04/12 11:02:42;;;;;;;6.65;4.07;;;10.20;48.50;;;;;;5089484;28;20043;-60
2021/04/12 11:05:13;;;;;;;7.93;4.18;;;10.50;50.60;;;;;;5079366;28;20093;-58
2021/04/12 11:08:05;;;;;;;7.18;4.93;;;11.00;49.10;;;;;;5089455;28;20491;-57
2021/04/12 11:10:41;;;;;;;5.60;4.30;;;10.80;46.80;;;;;;5089244;28;20095;-58
2021/04/12 11:13:26;;;;;;;6.68;4.72;;;10.80;47.20;;;;;;4941883;28;20128;-56
2021/04/12 11:16:08;;;;;;;7.43;3.95;;;10.50;47.70;;;;;;4989839;28;20054;-60
2021/04/12 11:19:08;;;;;;;5.53;3.92;;;10.50;47.90;;;;;;5034050;28;20132;-55
2021/04/12 11:21:52;;;;;;;6.78;3.58;;;10.70;48.00;;;;;;5028146;28;20053;-59
2021/04/12 11:24:20;;;;;;;9.00;3.50;;;;;;;;;;5033913;28;20095;-60
2021/04/12 11:27:43;;;;;;;7.28;3.78;;;12.00;48.40;;;;;;5040571;28;20141;-60
2021/04/12 11:30:10;;;;;;;4.43;3.20;;;;;;;;;;4968893;28;20050;-61
2021/04/12 11:33:08;;;;;;;3.20;2.90;;;12.70;42.70;;;;;;4971604;28;20162;-58
2021/04/12 11:36:07;;;;;;;5.05;2.97;;;12.70;41.70;;;;;;4966607;28;20137;-58
2021/04/12 11:38:41;;;;;;;6.93;3.08;;;12.60;43.10;;;;;;4967720;28;20125;-55
2021/04/12 11:41:18;;;;;;;3.17;2.80;;;12.90;40.60;;;;;;4966418;28;20075;-57
2021/04/12 11:43:50;;;;;;;7.15;2.95;;;13.20;41.50;;;;;;4967130;28;20073;-57
2021/04/12 11:46:17;;;;;;;3.83;2.80;;;;;;;;;;4968242;28;20074;-59
2021/04/12 11:48:48;;;;;;;;;;;13.10;39.50;;;;;;4970209;28;20121;-57
2021/04/12 11:51:52;;;;;;;6.72;3.08;;;13.60;38.60;;;;;;4969949;28;20005;-60
2021/04/12 11:54:46;;;;;;;7.05;3.00;;;13.20;37.00;;;;;;4969276;28;20050;-59
2021/04/12 11:57:43;;;;;;;3.20;2.90;;;11.80;37.20;;;;;;4970118;28;20170;-62
2021/04/12 12:00:20;;;;;;;6.25;3.17;;;12.60;38.80;;;;;;4993516;28;20054;-61
2021/04/12 12:03:08;;;;;;;4.07;2.80;;;12.60;40.50;;;;;;5028332;28;20060;-61
2021/04/12 12:05:56;;;;;;;5.22;3.33;;;13.00;40.30;;;;;;5030967;28;20040;-61
2021/04/12 12:08:33;;;;;;;4.82;3.33;;;13.10;38.20;;;;;;5021944;28;20466;-60
2021/04/12 12:11:08;;;;;;;6.35;3.03;;;13.30;36.40;;;;;;5033826;28;20033;-62
2021/04/12 12:13:50;;;;;;;6.03;3.10;;;13.20;37.30;;;;;;5015286;28;20503;-62
2021/04/12 12:16:32;;;;;;;5.60;3.10;;;13.30;39.00;;;;;;5033671;28;20054;-61
2021/04/12 12:19:05;;;;;;;5.28;2.85;;;13.50;36.70;;;;;;5032417;28;20525;-58
2021/04/12 12:21:48;;;;;;;5.20;3.10;;;13.70;36.10;;;;;;5032138;28;20098;-61
2021/04/12 12:24:19;;;;;;;4.68;2.78;;;14.20;37.30;;;;;;5032368;28;20041;-61
2021/04/12 12:27:15;;;;;;;4.82;2.95;;;14.30;32.50;;;;;;5032757;28;20041;-61
2021/04/12 12:30:10;;;;;;;3.72;2.83;;;15.10;35.80;;;;;;4969235;28;20086;-61
2021/04/12 12:32:59;;;;;;;4.87;2.77;;;15.70;34.40;;;;;;4967021;28;20092;-62
2021/04/12 12:35:43;;;;;;;5.53;2.85;;;15.40;30.50;;;;;;4953603;28;20055;-60
2021/04/12 12:38:45;;;;;;;6.00;2.80;;;15.50;31.10;;;;;;4968947;28;20050;-61
2021/04/12 12:41:23;;;;;;;3.85;2.70;;;14.80;31.50;;;;;;4958015;28;20059;-59
2021/04/12 12:43:59;;;;;;;4.70;2.78;;;15.00;31.00;;;;;;4969545;28;20453;-61
2021/04/12 12:46:27;;;;;;;;;;;15.00;31.70;;;;;;4937626;28;20529;-61
2021/04/12 12:49:20;;;;;;;6.72;2.78;;;15.70;33.40;;;;;;4970557;28;19944;-59
2021/04/12 12:51:49;;;;;;;3.10;2.47;;;15.50;30.50;;;;;;4972070;28;20457;-61
2021/04/12 12:54:37;;;;;;;4.28;2.50;;;15.60;31.20;;;;;;4972538;28;20057;-60
2021/04/12 12:57:20;;;;;;;4.70;2.90;;;15.90;31.50;;;;;;4975580;28;20501;-61
2021/04/12 13:00:10;;;;;;;5.25;2.83;;;15.90;30.20;;;;;;4972557;28;20086;-61
2021/04/12 13:02:39;;;;;;;4.95;2.55;;;15.30;31.60;;;;;;4974689;28;20034;-60
2021/04/12 13:05:07;;;;;;;7.68;2.83;;;;;;;;;;4972929;28;20087;-60
2021/04/12 13:07:35;;;;;;;3.13;2.38;;;14.80;32.00;;;;;;4995868;28;20091;-60
2021/04/12 13:10:26;;;;;;;4.72;2.60;;;14.80;30.60;;;;;;5034576;28;20041;-60
2021/04/12 13:12:54;;;;;;;3.67;2.53;;;14.50;31.40;;;;;;5035225;28;20053;-61
2021/04/12 13:15:37;;;;;;;5.13;2.90;;;14.60;33.00;;;;;;5034724;28;20097;-62
2021/04/12 13:18:13;;;;;;;5.68;3.00;;;15.00;32.20;;;;;;5035009;28;20077;-60
2021/04/12 13:20:49;;;;;;;5.70;2.85;;;15.40;32.30;;;;;;5033940;28;20053;-61
2021/04/12 13:23:16;;;;;;;3.55;2.80;;;;;;;;;;5035298;28;20080;-55
2021/04/12 13:25:52;;;;;;;5.30;2.97;;;15.40;31.40;;;;;;5016519;28;20050;-59
2021/04/12 13:28:41;;;;;;;2.90;2.70;;;15.50;32.10;;;;;;5035140;28;20061;-59
2021/04/12 13:31:10;;;;;;;5.82;3.00;;;14.80;31.30;;;;;;5034163;28;20458;-56
2021/04/12 13:33:40;;;;;;;7.95;2.78;;;14.90;32.00;;;;;;5033528;28;20041;-60
2021/04/12 13:36:08;;;;;;;5.95;3.08;;;;;;;;;;5032969;28;20050;-61
2021/04/12 13:38:37;;;;;;;7.43;2.90;;;15.30;33.60;;;;;;5033259;28;20045;-61
2021/04/12 13:41:19;;;;;;;9.95;3.20;;;15.00;32.90;;;;;;5033606;28;20045;-60
2021/04/12 13:43:50;;;;;;;6.95;3.15;;;15.10;33.80;;;;;;5033766;28;20100;-59
2021/04/12 13:46:27;;;;;;;7.75;3.10;;;15.30;33.70;;;;;;5033267;28;20503;-60
2021/04/12 13:49:09;;;;;;;6.65;3.38;;;15.10;33.10;;;;;;5033061;28;20088;-59
2021/04/12 13:51:55;;;;;;;6.65;3.53;;;14.90;34.70;;;;;;5031534;28;20049;-60
2021/04/12 13:54:40;;;;;;;7.57;3.70;;;15.20;37.90;;;;;;5035091;28;20109;-57
2021/04/12 13:57:15;;;;;;;5.35;3.20;;;15.50;37.60;;;;;;5048871;28;20098;-61
2021/04/12 13:59:49;;;;;;;6.40;2.97;;;15.80;37.30;;;;;;5049402;28;20048;-59
2021/04/12 14:02:25;;;;;;;8.07;2.85;;;15.90;33.30;;;;;;5051129;28;20045;-61
2021/04/12 14:05:03;;;;;;;5.10;3.10;;;16.30;35.10;;;;;;5027231;28;20044;-61
2021/04/12 14:08:07;;;;;;;6.18;3.25;;;16.80;35.40;;;;;;5032884;28;20057;-59
2021/04/12 14:10:44;;;;;;;5.03;3.08;;;17.40;34.60;;;;;;5043519;28;20053;-58
2021/04/12 14:13:18;;;;;;;6.63;3.17;;;17.70;32.60;;;;;;5050006;28;20498;-60
2021/04/12 14:16:05;;;;;;;10.55;2.85;;;18.20;30.80;;;;;;5040840;28;20041;-63
2021/04/12 14:18:45;;;;;;;4.80;2.80;;;18.50;30.30;;;;;;5026648;28;20064;-62
2021/04/12 14:21:31;;;;;;;6.78;3.10;;;18.50;30.80;;;;;;5049619;28;20180;-61
2021/04/12 14:24:20;;;;;;;4.43;2.80;;;18.60;30.00;;;;;;5045792;28;20091;-61
2021/04/12 14:27:09;;;;;;;7.25;2.80;;;18.80;28.80;;;;;;5050923;28;20049;-60
2021/04/12 14:29:45;;;;;;;4.75;2.20;;;18.30;27.80;;;;;;5050518;28;20051;-59
2021/04/12 14:32:19;;;;;;;9.90;2.25;;;18.20;28.60;;;;;;5035042;28;20384;-61
2021/04/12 14:35:03;;;;;;;4.35;2.30;;;18.20;28.30;;;;;;5010964;28;20061;-61
2021/04/12 14:37:33;;;;;;;4.90;2.53;;;18.10;28.20;;;;;;5031369;28;20041;-60
2021/04/12 14:40:26;;;;;;;7.85;2.58;;;18.20;28.70;;;;;;5031674;28;20050;-59
2021/04/12 14:43:17;;;;;;;3.63;2.35;;;18.30;28.80;;;;;;5032023;28;20053;-60